• Join FlightAware (Why Join?)
  • Login
  • US Flag 
12:39AM EDT


 

Airport Tracker/Info


-or-


 

Live Flight TrackerFlight Track Log ✈ JBU51 ✈ 06-May-2013 ✈ KBTV - KJFK

Flight Track Log - Related Links

Times and Time Zones

All times are in EDT time to prevent confusion due to time zone crossing. See the JBU51 flight status page for this flight to view local times or setup timezone preferences in your user account.

Time Position Orientation Groundspeed Altitude Reporting Facility
EDT Latitude Longitude Course Direction KTS MPH feet Rate Location/Type
03:10PM 44.2608 -73.2025 197° South 281 323 10,100  Level Boston Center
03:11PM 44.1814 -73.2361 197° South 293 337 11,700 1,920 Climbing Boston Center
03:12PM 44.0875 -73.2753 197° South 330 380 14,000 2,400 Climbing Boston Center
03:14PM 43.8806 -73.3589 196° South 384 442 19,000 2,340 Climbing Boston Center
03:16PM 43.6506 -73.4500 196° South 425 489 23,400 2,100 Climbing Boston Center
03:17PM 43.5314 -73.4967 196° South 440 506 25,300 1,620 Climbing Boston Center
03:18PM 43.4100 -73.5433 196° South 447 514 26,700 840 Climbing Boston Center
03:19PM 43.2825 -73.5950 196° South 460 529 27,000 420 Climbing Boston Center
03:21PM 43.0269 -73.6956 196° South 476 548 28,000 300 Climbing Boston Center
03:22PM 42.8994 -73.7439 196° South 482 555 28,000  Level Boston Center
03:23PM 42.7717 -73.7950 196° South 482 555 28,000  Level Boston Center
03:24PM 42.6631 -73.8067 185° South 482 555 28,000  Level Boston Center
03:25PM 42.5172 -73.8119 182° South 482 555 28,000  Level Boston Center
03:26PM 42.3881 -73.8147 182° South 482 555 28,000  Level Boston Center
03:27PM 44.3303 -73.1778 180° South  Level Estimated
03:27PM 42.2628 -73.8175 180° South 471 542 28,000  Level Boston Center
03:28PM 42.1356 -73.8175 180° South 460 529 28,000 -300 Level Boston Center
03:30PM 41.9929 -73.8012 182° South  Level FlightAware Approximate
03:31PM 41.7136 -73.8222 180° South 456 525 26,900  Level New York Center
03:32PM 41.6039 -73.8783 201° Southwest 458 527 24,600 -2,100 Descending New York Center
03:33PM 41.5208 -73.9436 210° Southwest 422 486 22,800 -1,920 Descending New York Center
03:34PM 41.4375 -74.0200 215° Southwest 394 453 20,900 -1,380 Descending New York Center
03:35PM 41.3564 -74.0933 214° Southwest 379 436 20,000 -480 Descending New York Center
03:36PM 41.2753 -74.1639 213° Southwest 359 413 20,000  Level New York Center
03:38PM 41.1749 -74.2428 211° Southwest  Level FlightAware Approximate
03:39PM 41.1872 -74.5261 159° South 352 405 20,000  Level New York Center
03:41PM 41.1088 -74.4179 134° Southeast  Level Estimated
03:41PM 41.0708 -74.6517 134° Southeast 264 304 20,000  Level New York Center
03:42PM 41.0306 -74.5447 117° Southeast 208 239 20,000 -540 Level New York Center
03:43PM 40.9903 -74.4300 115° Southeast 246 283 19,000 -600 Descending New York Center
03:44PM 40.9667 -74.3500 111° Southeast 327 376 19,000 -300 Level New York TRACON
03:45PM 40.7091 -73.8212 159° South  Level FlightAware Approximate
03:46PM 40.8494 -74.1289 125° Southeast 330 380 18,200  Level New York Center
03:48PM 40.7834 -74.0182 143° Southeast  Level Estimated
03:48PM 40.7461 -73.9458 143° Southeast 313 360 14,800  Level New York Center
03:49PM 40.6983 -73.8586 126° Southeast 302 348 12,900 -900 Descending New York Center
03:50PM 40.6486 -73.7689 126° Southeast 302 348 13,100 -300 Climbing New York Center
03:51PM 40.6167 -73.7000 121° Southeast 293 337 12,400 -600 Descending New York TRACON
03:52PM 40.5667 -73.6167 128° Southeast 280 322 12,100 -600 Descending New York TRACON
03:53PM 40.5000 -73.5667 150° Southeast 283 326 11,200 -1,500 Descending New York TRACON
03:54PM 40.4167 -73.6000 197° South 287 330 9,200 -1,800 Descending New York TRACON
03:56PM 40.3333 -73.7667 237° Southwest 272 313 5,900 -1,620 Descending New York TRACON
03:57PM 40.3000 -73.8500 242° Southwest 262 302 4,400 -1,500 Descending New York TRACON
03:58PM 40.3167 -73.9167 288° West 266 306 3,000 -420 Descending New York TRACON
04:01PM 40.4667 -73.9833 341° North 188 216 2,900 -60 Descending New York TRACON
04:02PM 40.5167 -73.9833 360° North 185 213 2,900 -420 Level New York TRACON
04:05PM 40.6333 -73.8833 33° Northeast 156 180 1,300 -540 Descending New York TRACON
04:06PM 40.6667 -73.8500 37° Northeast 124 143 900 -420 Descending New York TRACON